Time,TemperatureF,DewpointF,PressureIn,WindDirection,WindDirectionDegrees,WindSpeedMPH,WindSpeedGustMPH,Humidity,HourlyPrecipIn,Conditions,Clouds,dailyrainin,SoftwareType,DateUTC
2013-07-29 00:00:00,71.2,68.5,30.05,East,90,0.7,1.6,91,0.01,,,0.00,pywws,2013-07-29 04:00:00,
2013-07-29 00:01:00,71.2,68.5,30.05,East,90,0.0,0.7,91,0.01,,,0.00,pywws,2013-07-29 04:01:00,
2013-07-29 00:03:00,71.2,68.5,30.05,East,90,0.0,0.0,91,0.01,,,0.00,pywws,2013-07-29 04:03:00,
2013-07-29 00:04:00,71.2,68.5,30.05,East,90,0.0,0.0,91,0.01,,,0.00,pywws,2013-07-29 04:04:00,
2013-07-29 00:05:00,71.2,68.5,30.05,East,90,0.0,0.0,91,0.00,,,0.00,pywws,2013-07-29 04:05:00,
2013-07-29 00:11:00,71.2,68.5,30.06,WSW,248,2.2,3.1,91,0.00,,,0.00,pywws,2013-07-29 04:11:00,
2013-07-29 00:17:00,71.2,68.8,30.06,East,90,0.0,0.7,92,0.00,,,0.00,pywws,2013-07-29 04:17:00,
2013-07-29 00:22:00,71.1,68.6,30.06,South,180,0.0,0.0,92,0.00,,,0.00,pywws,2013-07-29 04:22:00,
2013-07-29 00:28:00,71.1,68.6,30.06,West,270,0.7,2.2,92,0.00,,,0.00,pywws,2013-07-29 04:28:00,
2013-07-29 00:33:00,71.1,68.6,30.06,SW,225,0.7,2.2,92,0.00,,,0.00,pywws,2013-07-29 04:33:00,
2013-07-29 00:39:00,71.1,68.6,30.06,West,270,1.6,2.2,92,0.00,,,0.00,pywws,2013-07-29 04:39:00,
2013-07-29 00:45:00,71.1,68.6,30.06,South,180,0.7,1.6,92,0.00,,,0.00,pywws,2013-07-29 04:45:00,
2013-07-29 00:50:00,71.1,68.6,30.06,SW,225,0.7,1.6,92,0.00,,,0.00,pywws,2013-07-29 04:50:00,
2013-07-29 00:56:00,70.9,68.4,30.05,South,180,0.0,0.0,92,0.00,,,0.00,pywws,2013-07-29 04:56:00,
2013-07-29 01:03:00,70.9,68.1,30.05,West,270,0.0,0.0,91,0.00,,,0.00,pywws,2013-07-29 05:03:00,
2013-07-29 01:09:00,70.9,68.1,30.06,SE,135,0.0,0.0,91,0.00,,,0.00,pywws,2013-07-29 05:09:00,
2013-07-29 01:14:00,70.7,67.9,30.06,East,90,0.0,0.0,91,0.00,,,0.00,pywws,2013-07-29 05:14:00,
2013-07-29 01:20:00,70.7,67.9,30.05,East,90,0.0,0.0,91,0.00,,,0.00,pywws,2013-07-29 05:20:00,
2013-07-29 01:25:00,70.7,67.9,30.06,SW,225,0.0,0.0,91,0.00,,,0.00,pywws,2013-07-29 05:25:00,
2013-07-29 01:31:00,70.5,67.8,30.06,SW,225,0.0,0.0,91,0.00,,,0.00,pywws,2013-07-29 05:31:00,
2013-07-29 01:37:00,70.5,67.8,30.06,South,180,0.0,0.0,91,0.00,,,0.00,pywws,2013-07-29 05:37:00,
2013-07-29 01:42:00,70.5,67.8,30.06,East,90,0.0,0.0,91,0.00,,,0.00,pywws,2013-07-29 05:42:00,
2013-07-29 01:48:00,70.5,67.8,30.06,East,90,0.0,0.7,91,0.00,,,0.00,pywws,2013-07-29 05:48:00,
2013-07-29 01:53:00,70.5,67.8,30.06,East,90,0.0,0.0,91,0.00,,,0.00,pywws,2013-07-29 05:53:00,
2013-07-29 01:59:00,70.5,67.8,30.06,North,0,0.0,0.0,91,0.00,,,0.00,pywws,2013-07-29 05:59:00,
2013-07-29 02:05:00,70.5,68.1,30.06,West,270,0.0,0.0,92,0.00,,,0.00,pywws,2013-07-29 06:05:00,
2013-07-29 02:10:00,70.3,67.9,30.06,West,270,0.0,0.0,92,0.00,,,0.00,pywws,2013-07-29 06:10:00,
2013-07-29 02:16:00,70.3,67.9,30.06,NW,315,0.0,0.0,92,0.00,,,0.00,pywws,2013-07-29 06:16:00,
2013-07-29 02:21:00,70.3,67.9,30.06,NW,315,0.0,0.0,92,0.00,,,0.00,pywws,2013-07-29 06:21:00,
2013-07-29 02:27:00,70.3,67.9,30.06,SE,135,0.0,0.0,92,0.00,,,0.00,pywws,2013-07-29 06:27:00,
2013-07-29 02:33:00,70.3,67.9,30.06,SE,135,0.0,0.0,92,0.00,,,0.00,pywws,2013-07-29 06:33:00,
2013-07-29 02:38:00,70.3,67.9,30.06,NW,315,0.0,0.0,92,0.00,,,0.00,pywws,2013-07-29 06:38:00,
2013-07-29 02:44:00,70.3,67.9,30.06,NW,315,0.7,1.6,92,0.00,,,0.00,pywws,2013-07-29 06:44:00,
2013-07-29 02:49:00,70.3,67.9,30.06,North,0,0.0,0.0,92,0.00,,,0.00,pywws,2013-07-29 06:49:00,
2013-07-29 02:55:00,70.3,67.9,30.05,SE,135,0.0,0.0,92,0.00,,,0.00,pywws,2013-07-29 06:55:00,
2013-07-29 03:01:00,70.3,67.9,30.06,SW,225,0.7,1.6,92,0.00,,,0.00,pywws,2013-07-29 07:01:00,
2013-07-29 03:06:00,70.2,67.7,30.07,West,270,0.7,1.6,92,0.00,,,0.00,pywws,2013-07-29 07:06:00,
2013-07-29 03:12:00,70.2,67.7,30.07,NW,315,1.6,3.1,92,0.00,,,0.00,pywws,2013-07-29 07:12:00,
2013-07-29 03:17:00,70.2,67.7,30.07,West,270,0.7,1.6,92,0.00,,,0.00,pywws,2013-07-29 07:17:00,
2013-07-29 03:23:00,70.2,67.7,30.07,West,270,1.6,2.2,92,0.00,,,0.00,pywws,2013-07-29 07:23:00,
2013-07-29 03:29:00,70.2,67.7,30.07,West,270,2.2,3.8,92,0.00,,,0.00,pywws,2013-07-29 07:29:00,
2013-07-29 03:34:00,70.0,67.5,30.07,West,270,2.2,5.4,92,0.00,,,0.00,pywws,2013-07-29 07:34:00,
2013-07-29 03:40:00,70.0,67.5,30.07,NW,315,0.7,1.6,92,0.00,,,0.00,pywws,2013-07-29 07:40:00,
2013-07-29 03:45:00,70.0,67.5,30.07,SE,135,0.7,1.6,92,0.00,,,0.00,pywws,2013-07-29 07:45:00,
2013-07-29 03:51:00,69.8,67.4,30.07,SE,135,0.0,0.7,92,0.00,,,0.00,pywws,2013-07-29 07:51:00,
2013-07-29 03:57:00,69.8,67.4,30.06,West,270,0.0,0.0,92,0.00,,,0.00,pywws,2013-07-29 07:57:00,
2013-07-29 04:03:00,69.8,67.4,30.06,West,270,0.0,0.7,92,0.00,,,0.00,pywws,2013-07-29 08:03:00,
2013-07-29 04:09:00,69.6,67.5,30.06,SE,135,0.7,1.6,93,0.00,,,0.00,pywws,2013-07-29 08:09:00,
2013-07-29 04:14:00,69.4,67.3,30.06,East,90,0.0,0.7,93,0.00,,,0.00,pywws,2013-07-29 08:14:00,
2013-07-29 04:20:00,69.3,67.1,30.06,East,90,0.0,0.0,93,0.00,,,0.00,pywws,2013-07-29 08:20:00,
2013-07-29 04:25:00,69.3,67.1,30.06,SE,135,0.0,0.7,93,0.00,,,0.00,pywws,2013-07-29 08:25:00,
2013-07-29 04:31:00,69.1,67.0,30.06,East,90,0.7,0.7,93,0.00,,,0.00,pywws,2013-07-29 08:31:00,
2013-07-29 04:37:00,69.1,67.0,30.06,SSE,158,0.0,0.7,93,0.00,,,0.00,pywws,2013-07-29 08:37:00,
2013-07-29 04:42:00,69.1,67.0,30.05,East,90,0.0,0.7,93,0.00,,,0.00,pywws,2013-07-29 08:42:00,
2013-07-29 04:48:00,69.1,67.0,30.06,West,270,0.0,1.6,93,0.00,,,0.00,pywws,2013-07-29 08:48:00,
2013-07-29 04:53:00,68.9,66.8,30.05,South,180,0.0,0.0,93,0.00,,,0.00,pywws,2013-07-29 08:53:00,
2013-07-29 04:59:00,68.7,66.6,30.05,NE,45,0.0,0.0,93,0.00,,,0.00,pywws,2013-07-29 08:59:00,
2013-07-29 05:05:00,68.5,66.4,30.05,NE,45,0.0,0.0,93,0.00,,,0.00,pywws,2013-07-29 09:05:00,
2013-07-29 05:10:00,68.4,66.3,30.06,South,180,0.0,0.0,93,0.00,,,0.00,pywws,2013-07-29 09:10:00,
2013-07-29 05:16:00,68.4,66.3,30.06,South,180,0.0,0.0,93,0.00,,,0.00,pywws,2013-07-29 09:16:00,
2013-07-29 05:23:00,68.2,66.1,30.07,South,180,0.0,0.0,93,0.00,,,0.00,pywws,2013-07-29 09:23:00,
2013-07-29 05:29:00,68.2,66.1,30.06,South,180,0.0,0.0,93,0.00,,,0.00,pywws,2013-07-29 09:29:00,
2013-07-29 05:34:00,68.2,66.1,30.06,South,180,0.0,0.0,93,0.00,,,0.00,pywws,2013-07-29 09:34:00,
2013-07-29 05:40:00,68.0,65.9,30.06,South,180,0.0,0.0,93,0.00,,,0.00,pywws,2013-07-29 09:40:00,
2013-07-29 05:46:00,68.0,65.9,30.06,South,180,0.0,0.0,93,0.00,,,0.00,pywws,2013-07-29 09:46:00,
2013-07-29 05:52:00,67.8,66.0,30.06,SE,135,0.0,0.0,94,0.00,,,0.00,pywws,2013-07-29 09:52:00,
2013-07-29 05:57:00,67.8,66.0,30.07,SE,135,0.0,0.0,94,0.00,,,0.00,pywws,2013-07-29 09:57:00,
2013-07-29 06:03:00,67.8,66.0,30.06,East,90,0.0,0.0,94,0.00,,,0.00,pywws,2013-07-29 10:03:00,
2013-07-29 06:08:00,67.6,65.8,30.06,East,90,0.0,0.0,94,0.00,,,0.00,pywws,2013-07-29 10:08:00,
2013-07-29 06:14:00,67.6,65.8,30.06,East,90,0.0,0.0,94,0.00,,,0.00,pywws,2013-07-29 10:14:00,
2013-07-29 06:20:00,67.6,65.8,30.06,West,270,0.7,1.6,94,0.00,,,0.00,pywws,2013-07-29 10:20:00,
2013-07-29 06:27:00,67.6,65.8,30.07,SW,225,0.0,0.7,94,0.00,,,0.00,pywws,2013-07-29 10:27:00,
2013-07-29 06:32:00,67.6,65.8,30.06,West,270,0.0,0.7,94,0.00,,,0.00,pywws,2013-07-29 10:32:00,
2013-07-29 06:37:00,67.8,66.0,30.07,West,270,0.7,1.6,94,0.00,,,0.00,pywws,2013-07-29 10:37:00,
2013-07-29 06:42:00,67.8,66.0,30.08,SW,225,0.7,1.6,94,0.00,,,0.00,pywws,2013-07-29 10:42:00,
2013-07-29 06:48:00,68.0,66.2,30.08,West,270,1.6,2.2,94,0.01,,,0.01,pywws,2013-07-29 10:48:00,
2013-07-29 06:53:00,68.2,66.4,30.08,West,270,2.2,4.5,94,0.01,,,0.01,pywws,2013-07-29 10:53:00,
2013-07-29 07:00:00,68.4,66.6,30.09,NW,315,1.6,3.1,94,0.01,,,0.01,pywws,2013-07-29 11:00:00,
2013-07-29 07:05:00,68.7,66.9,30.09,NW,315,3.1,3.8,94,0.01,,,0.01,pywws,2013-07-29 11:05:00,
2013-07-29 07:10:00,68.7,66.9,30.10,NW,315,6.9,9.2,94,0.01,,,0.01,pywws,2013-07-29 11:10:00,
2013-07-29 07:16:00,68.9,67.1,30.09,West,270,1.6,3.1,94,0.01,,,0.01,pywws,2013-07-29 11:16:00,
2013-07-29 07:21:00,69.1,67.3,30.09,NW,315,3.1,4.5,94,0.01,,,0.01,pywws,2013-07-29 11:21:00,
2013-07-29 07:27:00,69.1,67.3,30.10,NW,315,3.1,5.4,94,0.01,,,0.01,pywws,2013-07-29 11:27:00,
2013-07-29 07:32:00,68.9,67.1,30.10,North,0,1.6,3.1,94,0.01,,,0.01,pywws,2013-07-29 11:32:00,
2013-07-29 07:38:00,68.9,67.1,30.10,NW,315,2.2,3.1,94,0.01,,,0.01,pywws,2013-07-29 11:38:00,
2013-07-29 07:43:00,68.9,67.1,30.10,NW,315,2.2,4.5,94,0.01,,,0.01,pywws,2013-07-29 11:43:00,
2013-07-29 07:48:00,68.9,67.1,30.10,NW,315,3.8,4.5,94,0.01,,,0.01,pywws,2013-07-29 11:48:00,
2013-07-29 07:54:00,69.1,67.3,30.11,North,0,0.0,1.6,94,0.00,,,0.01,pywws,2013-07-29 11:54:00,
2013-07-29 08:00:00,69.1,67.3,30.10,North,0,0.7,3.1,94,0.00,,,0.01,pywws,2013-07-29 12:00:00,
2013-07-29 08:05:00,69.3,67.1,30.10,North,0,2.2,3.8,93,0.00,,,0.01,pywws,2013-07-29 12:05:00,
2013-07-29 08:10:00,69.4,67.3,30.11,ESE,112,1.6,3.1,93,0.00,,,0.01,pywws,2013-07-29 12:10:00,
2013-07-29 08:16:00,69.6,67.2,30.11,North,0,0.0,1.6,92,0.00,,,0.01,pywws,2013-07-29 12:16:00,
2013-07-29 08:21:00,69.8,66.7,30.11,North,0,0.7,1.6,90,0.00,,,0.01,pywws,2013-07-29 12:21:00,
2013-07-29 08:27:00,70.0,66.6,30.11,North,0,0.0,0.7,89,0.00,,,0.01,pywws,2013-07-29 12:27:00,
2013-07-29 08:32:00,70.2,66.4,30.12,North,0,3.1,5.4,88,0.00,,,0.01,pywws,2013-07-29 12:32:00,
2013-07-29 08:37:00,70.5,66.1,30.11,NW,315,3.1,4.5,86,0.00,,,0.01,pywws,2013-07-29 12:37:00,
2013-07-29 08:43:00,70.7,65.6,30.12,North,0,3.1,4.5,84,0.00,,,0.01,pywws,2013-07-29 12:43:00,
2013-07-29 08:48:00,70.9,65.1,30.12,NNW,338,3.8,5.4,82,0.00,,,0.01,pywws,2013-07-29 12:48:00,
2013-07-29 08:54:00,71.1,65.3,30.11,NW,315,2.2,3.8,82,0.00,,,0.01,pywws,2013-07-29 12:54:00,
2013-07-29 09:00:00,71.1,64.6,30.12,North,0,0.7,2.2,80,0.00,,,0.01,pywws,2013-07-29 13:00:00,
2013-07-29 09:05:00,71.2,64.7,30.11,NE,45,0.7,1.6,80,0.00,,,0.01,pywws,2013-07-29 13:05:00,
2013-07-29 09:10:00,71.8,65.3,30.11,NE,45,1.6,3.1,80,0.00,,,0.01,pywws,2013-07-29 13:10:00,
2013-07-29 09:16:00,72.1,65.3,30.11,NW,315,3.8,4.5,79,0.00,,,0.01,pywws,2013-07-29 13:16:00,
2013-07-29 09:21:00,72.5,65.2,30.11,NE,45,2.2,4.5,78,0.00,,,0.01,pywws,2013-07-29 13:21:00,
2013-07-29 09:26:00,73.0,65.8,30.11,WNW,292,1.6,2.2,78,0.00,,,0.01,pywws,2013-07-29 13:26:00,
2013-07-29 09:32:00,73.6,65.9,30.11,North,0,2.2,3.8,77,0.00,,,0.01,pywws,2013-07-29 13:32:00,
2013-07-29 09:37:00,74.1,66.4,30.11,NW,315,2.2,3.8,77,0.00,,,0.01,pywws,2013-07-29 13:37:00,
2013-07-29 09:42:00,74.3,66.2,30.11,North,0,3.1,4.5,76,0.00,,,0.01,pywws,2013-07-29 13:42:00,
2013-07-29 09:47:00,75.0,66.9,30.11,NE,45,2.2,3.1,76,0.00,,,0.01,pywws,2013-07-29 13:47:00,
2013-07-29 09:52:00,75.7,66.8,30.12,NNW,338,5.4,7.6,74,0.00,,,0.01,pywws,2013-07-29 13:52:00,
2013-07-29 09:57:00,76.1,66.4,30.12,North,0,1.6,3.1,72,0.00,,,0.01,pywws,2013-07-29 13:57:00,
2013-07-29 10:03:00,76.5,66.7,30.12,NW,315,3.1,4.5,72,0.00,,,0.01,pywws,2013-07-29 14:03:00,
2013-07-29 10:08:00,77.0,66.4,30.12,SE,135,1.6,3.1,70,0.00,,,0.01,pywws,2013-07-29 14:08:00,
2013-07-29 10:13:00,77.7,66.7,30.12,NE,45,1.6,3.1,69,0.00,,,0.01,pywws,2013-07-29 14:13:00,
2013-07-29 10:19:00,78.1,66.2,30.12,NE,45,1.6,4.5,67,0.00,,,0.01,pywws,2013-07-29 14:19:00,
2013-07-29 10:25:00,78.3,66.4,30.13,North,0,1.6,3.1,67,0.00,,,0.01,pywws,2013-07-29 14:25:00,
2013-07-29 10:30:00,78.8,66.9,30.13,SE,135,0.7,1.6,67,0.00,,,0.01,pywws,2013-07-29 14:30:00,
2013-07-29 10:36:00,79.7,66.9,30.13,NE,45,0.7,2.2,65,0.00,,,0.01,pywws,2013-07-29 14:36:00,
2013-07-29 10:42:00,80.2,67.4,30.12,East,90,3.1,4.5,65,0.00,,,0.01,pywws,2013-07-29 14:42:00,
2013-07-29 10:47:00,80.6,66.4,30.12,North,0,1.6,2.2,62,0.00,,,0.01,pywws,2013-07-29 14:47:00,
2013-07-29 10:53:00,80.6,65.9,30.12,East,90,0.7,1.6,61,0.00,,,0.01,pywws,2013-07-29 14:53:00,
2013-07-29 10:59:00,81.3,67.0,30.12,SW,225,3.8,4.5,62,0.00,,,0.01,pywws,2013-07-29 14:59:00,
2013-07-29 11:05:00,81.3,66.6,30.12,NW,315,0.7,2.2,61,0.00,,,0.01,pywws,2013-07-29 15:05:00,
2013-07-29 11:10:00,81.5,67.7,30.12,East,90,1.6,3.1,63,0.00,,,0.01,pywws,2013-07-29 15:10:00,
2013-07-29 11:16:00,81.9,67.1,30.12,NE,45,1.6,2.2,61,0.00,,,0.01,pywws,2013-07-29 15:16:00,
2013-07-29 11:21:00,81.9,66.6,30.12,NW,315,3.8,5.4,60,0.00,,,0.01,pywws,2013-07-29 15:21:00,
2013-07-29 11:26:00,81.0,65.3,30.12,West,270,1.6,2.2,59,0.00,,,0.01,pywws,2013-07-29 15:26:00,
2013-07-29 11:32:00,81.3,66.6,30.12,West,270,2.2,3.1,61,0.00,,,0.01,pywws,2013-07-29 15:32:00,
2013-07-29 11:37:00,82.0,67.2,30.11,West,270,1.6,3.1,61,0.00,,,0.01,pywws,2013-07-29 15:37:00,
2013-07-29 11:43:00,82.6,65.3,30.12,South,180,1.6,2.2,56,0.00,,,0.01,pywws,2013-07-29 15:43:00,
2013-07-29 11:48:00,82.6,65.8,30.11,South,180,3.8,6.0,57,0.00,,,0.01,pywws,2013-07-29 15:48:00,
2013-07-29 11:53:00,81.9,65.1,30.11,SW,225,1.6,2.2,57,0.00,,,0.01,pywws,2013-07-29 15:53:00,
2013-07-29 11:59:00,82.0,67.7,30.11,NE,45,1.6,2.2,62,0.00,,,0.01,pywws,2013-07-29 15:59:00,
2013-07-29 12:05:00,82.4,65.1,30.11,South,180,6.0,8.3,56,0.00,,,0.01,pywws,2013-07-29 16:05:00,
2013-07-29 12:13:00,81.5,65.3,30.11,South,180,1.6,2.2,58,0.00,,,0.01,pywws,2013-07-29 16:13:00,
2013-07-29 12:18:00,81.5,64.8,30.11,West,270,3.8,6.0,57,0.00,,,0.01,pywws,2013-07-29 16:18:00,
2013-07-29 12:24:00,81.1,63.4,30.11,NW,315,3.8,4.5,55,0.00,,,0.01,pywws,2013-07-29 16:24:00,
2013-07-29 12:30:00,80.4,63.8,30.11,NW,315,2.2,3.8,57,0.00,,,0.01,pywws,2013-07-29 16:30:00,
2013-07-29 12:35:00,80.4,64.3,30.11,North,0,0.7,1.6,58,0.00,,,0.01,pywws,2013-07-29 16:35:00,
2013-07-29 12:41:00,81.0,64.3,30.11,East,90,1.6,2.2,57,0.00,,,0.01,pywws,2013-07-29 16:41:00,
2013-07-29 12:47:00,82.4,65.6,30.11,WNW,292,3.1,3.8,57,0.00,,,0.01,pywws,2013-07-29 16:47:00,
2013-07-29 12:53:00,83.7,65.8,30.11,East,90,0.7,2.2,55,0.00,,,0.01,pywws,2013-07-29 16:53:00,
2013-07-29 12:58:00,84.2,64.6,30.10,NW,315,4.5,7.6,52,0.00,,,0.01,pywws,2013-07-29 16:58:00,
2013-07-29 13:04:00,84.2,64.1,30.10,West,270,3.8,6.0,51,0.00,,,0.01,pywws,2013-07-29 17:04:00,
2013-07-29 13:09:00,84.7,65.1,30.10,East,90,3.1,4.5,52,0.00,,,0.01,pywws,2013-07-29 17:09:00,
2013-07-29 13:15:00,85.1,64.3,30.10,East,90,2.2,4.5,50,0.00,,,0.01,pywws,2013-07-29 17:15:00,
2013-07-29 13:22:00,85.3,65.1,30.10,SE,135,0.7,1.6,51,0.00,,,0.01,pywws,2013-07-29 17:22:00,
2013-07-29 13:27:00,84.7,64.0,30.10,WSW,248,6.9,9.2,50,0.00,,,0.01,pywws,2013-07-29 17:27:00,
2013-07-29 13:33:00,84.2,63.5,30.10,SW,225,2.2,4.5,50,0.00,,,0.01,pywws,2013-07-29 17:33:00,
2013-07-29 13:38:00,84.6,64.4,30.10,NW,315,4.5,6.0,51,0.00,,,0.01,pywws,2013-07-29 17:38:00,
2013-07-29 13:44:00,85.3,65.1,30.10,NW,315,3.8,5.4,51,0.00,,,0.01,pywws,2013-07-29 17:44:00,
2013-07-29 13:49:00,85.1,64.3,30.10,WNW,292,1.6,3.8,50,0.00,,,0.01,pywws,2013-07-29 17:49:00,
2013-07-29 13:55:00,85.3,64.5,30.10,SW,225,6.9,11.4,50,0.00,,,0.01,pywws,2013-07-29 17:55:00,
2013-07-29 14:01:00,84.7,62.8,30.10,NW,315,6.0,9.2,48,0.00,,,0.01,pywws,2013-07-29 18:01:00,
2013-07-29 14:06:00,84.4,63.1,30.10,SW,225,3.1,4.5,49,0.00,,,0.01,pywws,2013-07-29 18:06:00,
2013-07-29 14:11:00,84.6,63.8,30.10,West,270,1.6,4.5,50,0.00,,,0.01,pywws,2013-07-29 18:11:00,
2013-07-29 14:17:00,85.1,63.2,30.10,South,180,3.1,6.0,48,0.00,,,0.01,pywws,2013-07-29 18:17:00,
2013-07-29 14:22:00,84.9,63.0,30.10,SSW,202,6.9,11.4,48,0.00,,,0.01,pywws,2013-07-29 18:22:00,
2013-07-29 14:28:00,85.1,63.8,30.10,SE,135,6.9,8.3,49,0.00,,,0.01,pywws,2013-07-29 18:28:00,
2013-07-29 14:33:00,85.1,63.2,30.10,West,270,7.6,9.8,48,0.00,,,0.01,pywws,2013-07-29 18:33:00,
2013-07-29 14:39:00,85.1,63.2,30.10,NW,315,3.8,6.0,48,0.00,,,0.01,pywws,2013-07-29 18:39:00,
2013-07-29 14:45:00,85.1,63.2,30.10,WSW,248,6.0,7.6,48,0.00,,,0.01,pywws,2013-07-29 18:45:00,
2013-07-29 14:50:00,85.5,63.5,30.10,South,180,1.6,3.8,48,0.00,,,0.01,pywws,2013-07-29 18:50:00,
2013-07-29 14:55:00,85.6,63.7,30.10,NW,315,3.1,5.4,48,0.00,,,0.01,pywws,2013-07-29 18:55:00,
2013-07-29 15:01:00,85.8,63.2,30.10,West,270,7.6,10.7,47,0.00,,,0.01,pywws,2013-07-29 19:01:00,
2013-07-29 15:06:00,85.6,62.4,30.10,SW,225,5.4,10.7,46,0.00,,,0.01,pywws,2013-07-29 19:06:00,
2013-07-29 15:12:00,85.8,62.6,30.10,West,270,4.5,10.7,46,0.00,,,0.01,pywws,2013-07-29 19:12:00,
2013-07-29 15:17:00,85.8,62.6,30.10,WSW,248,4.5,5.4,46,0.00,,,0.01,pywws,2013-07-29 19:17:00,
2013-07-29 15:23:00,85.8,62.6,30.10,West,270,4.5,6.0,46,0.00,,,0.01,pywws,2013-07-29 19:23:00,
2013-07-29 15:29:00,85.6,62.4,30.10,West,270,5.4,6.9,46,0.00,,,0.01,pywws,2013-07-29 19:29:00,
2013-07-29 15:34:00,85.3,62.1,30.10,West,270,4.5,6.0,46,0.00,,,0.01,pywws,2013-07-29 19:34:00,
2013-07-29 15:40:00,85.1,60.7,30.10,NW,315,3.1,5.4,44,0.00,,,0.01,pywws,2013-07-29 19:40:00,
2013-07-29 15:46:00,84.9,61.2,30.10,SSE,158,6.0,8.3,45,0.00,,,0.01,pywws,2013-07-29 19:46:00,
2013-07-29 15:51:00,84.2,59.9,30.10,WSW,248,5.4,9.2,44,0.00,,,0.01,pywws,2013-07-29 19:51:00,
2013-07-29 15:57:00,84.7,60.4,30.10,West,270,4.5,6.0,44,0.00,,,0.01,pywws,2013-07-29 19:57:00,
2013-07-29 16:03:00,85.1,60.7,30.10,NNW,338,6.9,11.4,44,0.00,,,0.01,pywws,2013-07-29 20:03:00,
2013-07-29 16:09:00,85.5,60.4,30.10,West,270,6.0,9.8,43,0.00,,,0.01,pywws,2013-07-29 20:09:00,
2013-07-29 16:14:00,85.5,59.0,30.10,WSW,248,5.4,7.6,41,0.00,,,0.01,pywws,2013-07-29 20:14:00,
2013-07-29 16:20:00,85.1,58.7,30.10,NW,315,6.0,9.2,41,0.00,,,0.01,pywws,2013-07-29 20:20:00,
2013-07-29 16:25:00,85.1,58.0,30.10,SW,225,6.9,9.8,40,0.00,,,0.01,pywws,2013-07-29 20:25:00,
2013-07-29 16:30:00,84.7,57.7,30.10,NW,315,7.6,11.4,40,0.00,,,0.01,pywws,2013-07-29 20:30:00,
2013-07-29 16:36:00,84.0,60.4,30.10,SW,225,6.9,9.2,45,0.00,,,0.01,pywws,2013-07-29 20:36:00,
2013-07-29 16:41:00,84.4,60.1,30.10,NW,315,6.9,7.6,44,0.00,,,0.01,pywws,2013-07-29 20:41:00,
2013-07-29 16:47:00,84.6,56.8,30.10,East,90,3.1,5.4,39,0.00,,,0.01,pywws,2013-07-29 20:47:00,
2013-07-29 16:52:00,84.7,57.0,30.10,South,180,5.4,7.6,39,0.00,,,0.01,pywws,2013-07-29 20:52:00,
2013-07-29 16:57:00,84.7,57.7,30.10,NW,315,4.5,9.2,40,0.00,,,0.01,pywws,2013-07-29 20:57:00,
2013-07-29 17:03:00,84.6,58.2,30.11,WSW,248,3.1,6.9,41,0.00,,,0.01,pywws,2013-07-29 21:03:00,
2013-07-29 17:09:00,84.4,58.7,30.10,NW,315,3.1,6.9,42,0.00,,,0.01,pywws,2013-07-29 21:09:00,
2013-07-29 17:14:00,84.0,59.1,30.10,NW,315,7.6,13.0,43,0.00,,,0.01,pywws,2013-07-29 21:14:00,
2013-07-29 17:20:00,83.8,56.9,30.11,NW,315,4.5,7.6,40,0.00,,,0.01,pywws,2013-07-29 21:20:00,
2013-07-29 17:25:00,83.7,53.8,30.11,West,270,8.3,13.6,36,0.00,,,0.01,pywws,2013-07-29 21:25:00,
2013-07-29 17:32:00,83.5,52.9,30.11,West,270,4.5,7.6,35,0.00,,,0.01,pywws,2013-07-29 21:32:00,
2013-07-29 17:38:00,83.5,53.7,30.10,SW,225,1.6,3.1,36,0.00,,,0.01,pywws,2013-07-29 21:38:00,
2013-07-29 17:43:00,83.3,54.3,30.11,West,270,6.9,10.7,37,0.00,,,0.01,pywws,2013-07-29 21:43:00,
2013-07-29 17:49:00,83.1,54.1,30.10,North,0,5.4,9.2,37,0.00,,,0.01,pywws,2013-07-29 21:49:00,
2013-07-29 17:54:00,83.1,54.9,30.11,SW,225,5.4,6.9,38,0.00,,,0.01,pywws,2013-07-29 21:54:00,
2013-07-29 18:00:00,83.1,55.6,30.11,SSW,202,3.1,5.4,39,0.00,,,0.01,pywws,2013-07-29 22:00:00,
2013-07-29 18:06:00,82.9,55.4,30.11,NW,315,3.8,6.9,39,0.00,,,0.01,pywws,2013-07-29 22:06:00,
2013-07-29 18:11:00,82.9,55.4,30.11,West,270,5.4,8.3,39,0.00,,,0.01,pywws,2013-07-29 22:11:00,
2013-07-29 18:16:00,82.8,55.2,30.11,NW,315,6.9,10.7,39,0.00,,,0.01,pywws,2013-07-29 22:16:00,
2013-07-29 18:22:00,82.6,54.4,30.11,West,270,9.8,11.4,38,0.00,,,0.01,pywws,2013-07-29 22:22:00,
2013-07-29 18:27:00,82.2,53.3,30.11,North,0,6.9,9.2,37,0.00,,,0.01,pywws,2013-07-29 22:27:00,
2013-07-29 18:32:00,82.0,53.9,30.11,NW,315,6.9,9.2,38,0.00,,,0.01,pywws,2013-07-29 22:32:00,
2013-07-29 18:38:00,82.0,54.6,30.12,North,0,0.7,3.1,39,0.00,,,0.01,pywws,2013-07-29 22:38:00,
2013-07-29 18:44:00,82.0,53.9,30.12,West,270,3.8,6.0,38,0.00,,,0.01,pywws,2013-07-29 22:44:00,
2013-07-29 18:49:00,82.0,53.9,30.12,North,0,1.6,3.1,38,0.00,,,0.01,pywws,2013-07-29 22:49:00,
2013-07-29 18:54:00,81.7,53.6,30.12,North,0,3.8,6.0,38,0.00,,,0.01,pywws,2013-07-29 22:54:00,
2013-07-29 19:00:00,81.5,54.1,30.12,North,0,5.4,9.2,39,0.00,,,0.01,pywws,2013-07-29 23:00:00,
2013-07-29 19:05:00,81.3,54.7,30.12,North,0,6.0,9.2,40,0.00,,,0.01,pywws,2013-07-29 23:05:00,
2013-07-29 19:11:00,81.1,55.2,30.12,West,270,4.5,7.6,41,0.00,,,0.01,pywws,2013-07-29 23:11:00,
2013-07-29 19:17:00,81.0,55.0,30.13,West,270,3.1,5.4,41,0.00,,,0.01,pywws,2013-07-29 23:17:00,
2013-07-29 19:23:00,81.0,54.3,30.13,West,270,5.4,8.3,40,0.00,,,0.01,pywws,2013-07-29 23:23:00,
2013-07-29 19:28:00,80.8,54.2,30.13,NW,315,6.0,9.8,40,0.00,,,0.01,pywws,2013-07-29 23:28:00,
2013-07-29 19:33:00,79.9,54.1,30.14,NW,315,3.8,5.4,41,0.00,,,0.01,pywws,2013-07-29 23:33:00,
2013-07-29 19:39:00,79.3,54.2,30.14,North,0,6.9,9.8,42,0.00,,,0.01,pywws,2013-07-29 23:39:00,
2013-07-29 19:45:00,78.8,53.7,30.14,West,270,5.4,9.2,42,0.00,,,0.01,pywws,2013-07-29 23:45:00,
2013-07-29 19:50:00,78.6,54.2,30.14,WSW,248,6.9,9.2,43,0.00,,,0.01,pywws,2013-07-29 23:50:00,
2013-07-29 19:56:00,78.3,53.9,30.14,SW,225,9.2,12.1,43,0.00,,,0.01,pywws,2013-07-29 23:56:00,
2013-07-29 20:02:00,78.1,53.7,30.14,NW,315,3.8,7.6,43,0.00,,,0.01,pywws,2013-07-30 00:02:00,
2013-07-29 20:07:00,77.9,54.2,30.14,NW,315,2.2,8.3,44,0.00,,,0.01,pywws,2013-07-30 00:07:00,
2013-07-29 20:12:00,77.7,54.0,30.14,SW,225,4.5,6.9,44,0.00,,,0.01,pywws,2013-07-30 00:12:00,
2013-07-29 20:17:00,77.5,53.9,30.15,WSW,248,3.1,4.5,44,0.00,,,0.01,pywws,2013-07-30 00:17:00,
2013-07-29 20:23:00,77.2,53.6,30.15,West,270,4.5,6.0,44,0.00,,,0.01,pywws,2013-07-30 00:23:00,
2013-07-29 20:30:00,77.0,53.4,30.15,NW,315,5.4,7.6,44,0.00,,,0.01,pywws,2013-07-30 00:30:00,
2013-07-29 20:35:00,77.0,53.4,30.15,SW,225,3.1,5.4,44,0.00,,,0.01,pywws,2013-07-30 00:35:00,
2013-07-29 20:40:00,76.6,53.7,30.15,West,270,3.1,4.5,45,0.00,,,0.01,pywws,2013-07-30 00:40:00,
2013-07-29 20:47:00,76.5,53.5,30.16,West,270,1.6,3.1,45,0.00,,,0.01,pywws,2013-07-30 00:47:00,
2013-07-29 20:52:00,76.3,54.0,30.16,NW,315,2.2,4.5,46,0.00,,,0.01,pywws,2013-07-30 00:52:00,
2013-07-29 20:57:00,76.1,53.8,30.16,WSW,248,3.1,4.5,46,0.00,,,0.01,pywws,2013-07-30 00:57:00,
2013-07-29 21:03:00,75.9,53.6,30.16,SW,225,1.6,3.8,46,0.00,,,0.01,pywws,2013-07-30 01:03:00,
2013-07-29 21:09:00,75.7,54.1,30.16,NNW,338,1.6,2.2,47,0.00,,,0.01,pywws,2013-07-30 01:09:00,
2013-07-29 21:14:00,75.6,53.9,30.17,West,270,3.1,3.8,47,0.00,,,0.01,pywws,2013-07-30 01:14:00,
2013-07-29 21:20:00,75.4,53.7,30.17,SW,225,3.8,5.4,47,0.00,,,0.01,pywws,2013-07-30 01:20:00,
2013-07-29 21:25:00,75.4,53.7,30.17,WNW,292,2.2,4.5,47,0.00,,,0.01,pywws,2013-07-30 01:25:00,
2013-07-29 21:30:00,75.2,53.6,30.17,West,270,3.1,4.5,47,0.00,,,0.01,pywws,2013-07-30 01:30:00,
2013-07-29 21:36:00,74.8,54.4,30.17,WNW,292,2.2,3.8,49,0.00,,,0.01,pywws,2013-07-30 01:36:00,
2013-07-29 21:41:00,74.5,54.1,30.17,NW,315,3.8,6.0,49,0.00,,,0.01,pywws,2013-07-30 01:41:00,
2013-07-29 21:47:00,74.5,54.1,30.18,SW,225,3.1,4.5,49,0.00,,,0.01,pywws,2013-07-30 01:47:00,
2013-07-29 21:52:00,74.3,54.4,30.17,NW,315,3.1,6.9,50,0.00,,,0.01,pywws,2013-07-30 01:52:00,
2013-07-29 21:57:00,74.1,54.3,30.18,NW,315,5.4,8.3,50,0.00,,,0.01,pywws,2013-07-30 01:57:00,
2013-07-29 22:03:00,73.9,54.1,30.18,NNW,338,4.5,6.9,50,0.00,,,0.01,pywws,2013-07-30 02:03:00,
2013-07-29 22:09:00,73.6,53.8,30.18,SW,225,2.2,3.8,50,0.00,,,0.01,pywws,2013-07-30 02:09:00,
2013-07-29 22:14:00,73.4,53.6,30.18,SW,225,3.1,5.4,50,0.00,,,0.01,pywws,2013-07-30 02:14:00,
2013-07-29 22:19:00,73.2,54.0,30.19,West,270,3.8,6.0,51,0.00,,,0.01,pywws,2013-07-30 02:19:00,
2013-07-29 22:25:00,73.0,54.4,30.19,West,270,3.8,6.0,52,0.00,,,0.01,pywws,2013-07-30 02:25:00,
2013-07-29 22:30:00,72.9,54.2,30.19,SW,225,4.5,5.4,52,0.00,,,0.01,pywws,2013-07-30 02:30:00,
2013-07-29 22:36:00,72.7,54.0,30.19,West,270,2.2,4.5,52,0.00,,,0.01,pywws,2013-07-30 02:36:00,
2013-07-29 22:42:00,72.3,54.2,30.19,SW,225,3.1,4.5,53,0.00,,,0.01,pywws,2013-07-30 02:42:00,
2013-07-29 22:47:00,72.1,54.0,30.19,SW,225,2.2,4.5,53,0.00,,,0.01,pywws,2013-07-30 02:47:00,
2013-07-29 22:53:00,72.0,53.9,30.19,West,270,2.2,3.8,53,0.00,,,0.01,pywws,2013-07-30 02:53:00,
2013-07-29 22:58:00,71.8,53.7,30.19,West,270,3.1,5.4,53,0.00,,,0.01,pywws,2013-07-30 02:58:00,
2013-07-29 23:04:00,71.6,54.1,30.19,NW,315,3.1,3.8,54,0.00,,,0.01,pywws,2013-07-30 03:04:00,
2013-07-29 23:09:00,71.4,54.4,30.19,East,90,1.6,3.8,55,0.00,,,0.01,pywws,2013-07-30 03:09:00,
2013-07-29 23:15:00,71.2,54.2,30.19,NE,45,2.2,3.8,55,0.00,,,0.01,pywws,2013-07-30 03:15:00,
2013-07-29 23:21:00,71.2,54.2,30.19,NW,315,2.2,3.1,55,0.00,,,0.01,pywws,2013-07-30 03:21:00,
2013-07-29 23:26:00,71.1,54.1,30.19,South,180,2.2,3.1,55,0.00,,,0.01,pywws,2013-07-30 03:26:00,
2013-07-29 23:32:00,70.9,54.4,30.19,WSW,248,1.6,2.2,56,0.00,,,0.01,pywws,2013-07-30 03:32:00,
2013-07-29 23:38:00,70.7,54.2,30.19,West,270,2.2,3.8,56,0.00,,,0.01,pywws,2013-07-30 03:38:00,
2013-07-29 23:44:00,70.3,53.9,30.20,NW,315,0.7,2.2,56,0.00,,,0.01,pywws,2013-07-30 03:44:00,
2013-07-29 23:49:00,70.3,53.9,30.19,NW,315,0.7,2.2,56,0.00,,,0.01,pywws,2013-07-30 03:49:00,
2013-07-29 23:54:00,70.0,54.0,30.20,SW,225,0.7,1.6,57,0.00,,,0.01,pywws,2013-07-30 03:54:00,